sensor_id;sensor_type;location;lat;lon;timestamp;P1;durP1;ratioP1;P2;durP2;ratioP2
46391;SDS011;32098;49.448;7.904;2023-06-19T00:00:37;11.88;;;10.75;;
46391;SDS011;32098;49.448;7.904;2023-06-19T00:03:05;12.32;;;11.27;;
46391;SDS011;32098;49.448;7.904;2023-06-19T00:05:31;11.13;;;10.23;;
46391;SDS011;32098;49.448;7.904;2023-06-19T00:07:58;11.15;;;10.25;;
46391;SDS011;32098;49.448;7.904;2023-06-19T00:10:25;10.80;;;9.82;;
46391;SDS011;32098;49.448;7.904;2023-06-19T00:12:52;10.85;;;9.85;;
46391;SDS011;32098;49.448;7.904;2023-06-19T00:15:18;14.45;;;10.25;;
46391;SDS011;32098;49.448;7.904;2023-06-19T00:17:45;11.13;;;10.02;;
46391;SDS011;32098;49.448;7.904;2023-06-19T00:20:11;11.35;;;10.25;;
46391;SDS011;32098;49.448;7.904;2023-06-19T00:22:40;12.05;;;10.85;;
46391;SDS011;32098;49.448;7.904;2023-06-19T00:25:07;12.48;;;11.38;;
46391;SDS011;32098;49.448;7.904;2023-06-19T00:27:33;11.40;;;10.50;;
46391;SDS011;32098;49.448;7.904;2023-06-19T00:30:00;11.65;;;10.65;;
46391;SDS011;32098;49.448;7.904;2023-06-19T00:32:29;12.43;;;11.13;;
46391;SDS011;32098;49.448;7.904;2023-06-19T00:34:55;12.57;;;11.32;;
46391;SDS011;32098;49.448;7.904;2023-06-19T00:37:24;11.88;;;10.88;;
46391;SDS011;32098;49.448;7.904;2023-06-19T00:39:52;12.18;;;11.07;;
46391;SDS011;32098;49.448;7.904;2023-06-19T00:42:19;11.60;;;10.60;;
46391;SDS011;32098;49.448;7.904;2023-06-19T00:44:45;12.15;;;11.05;;
46391;SDS011;32098;49.448;7.904;2023-06-19T00:47:12;12.50;;;11.35;;
46391;SDS011;32098;49.448;7.904;2023-06-19T00:49:38;11.45;;;10.27;;
46391;SDS011;32098;49.448;7.904;2023-06-19T00:52:05;10.45;;;9.43;;
46391;SDS011;32098;49.448;7.904;2023-06-19T00:54:32;10.65;;;9.57;;
46391;SDS011;32098;49.448;7.904;2023-06-19T00:56:59;10.30;;;8.70;;
46391;SDS011;32098;49.448;7.904;2023-06-19T00:59:26;9.23;;;8.32;;
46391;SDS011;32098;49.448;7.904;2023-06-19T01:01:53;8.13;;;7.32;;
46391;SDS011;32098;49.448;7.904;2023-06-19T01:04:20;8.10;;;7.32;;
46391;SDS011;32098;49.448;7.904;2023-06-19T01:06:57;8.20;;;7.00;;
46391;SDS011;32098;49.448;7.904;2023-06-19T01:09:38;12.63;;;7.63;;
46391;SDS011;32098;49.448;7.904;2023-06-19T01:12:16;8.00;;;7.30;;
46391;SDS011;32098;49.448;7.904;2023-06-19T01:14:53;9.18;;;7.07;;
46391;SDS011;32098;49.448;7.904;2023-06-19T01:17:23;8.98;;;6.97;;
46391;SDS011;32098;49.448;7.904;2023-06-19T01:19:52;8.43;;;6.95;;
46391;SDS011;32098;49.448;7.904;2023-06-19T01:22:28;7.45;;;6.82;;
46391;SDS011;32098;49.448;7.904;2023-06-19T01:24:59;7.25;;;6.65;;
46391;SDS011;32098;49.448;7.904;2023-06-19T01:27:25;7.30;;;6.60;;
46391;SDS011;32098;49.448;7.904;2023-06-19T01:29:56;6.93;;;6.32;;
46391;SDS011;32098;49.448;7.904;2023-06-19T01:35:29;5.82;;;5.32;;
46391;SDS011;32098;49.448;7.904;2023-06-19T01:37:59;6.97;;;5.20;;
46391;SDS011;32098;49.448;7.904;2023-06-19T01:40:27;5.10;;;4.60;;
46391;SDS011;32098;49.448;7.904;2023-06-19T01:42:58;4.82;;;4.28;;
46391;SDS011;32098;49.448;7.904;2023-06-19T01:45:28;5.80;;;4.70;;
46391;SDS011;32098;49.448;7.904;2023-06-19T01:47:55;5.25;;;4.70;;
46391;SDS011;32098;49.448;7.904;2023-06-19T01:50:23;5.13;;;4.70;;
46391;SDS011;32098;49.448;7.904;2023-06-19T01:52:51;4.63;;;4.22;;
46391;SDS011;32098;49.448;7.904;2023-06-19T01:55:18;4.75;;;4.40;;
46391;SDS011;32098;49.448;7.904;2023-06-19T01:57:45;4.50;;;4.13;;
46391;SDS011;32098;49.448;7.904;2023-06-19T02:00:12;4.32;;;3.92;;
46391;SDS011;32098;49.448;7.904;2023-06-19T02:02:41;4.53;;;3.78;;
46391;SDS011;32098;49.448;7.904;2023-06-19T02:05:09;4.50;;;4.10;;
46391;SDS011;32098;49.448;7.904;2023-06-19T02:07:36;4.35;;;3.95;;
46391;SDS011;32098;49.448;7.904;2023-06-19T02:10:02;4.60;;;4.20;;
46391;SDS011;32098;49.448;7.904;2023-06-19T02:12:31;4.93;;;4.20;;
46391;SDS011;32098;49.448;7.904;2023-06-19T02:14:57;4.93;;;4.43;;
46391;SDS011;32098;49.448;7.904;2023-06-19T02:17:24;4.38;;;3.97;;
46391;SDS011;32098;49.448;7.904;2023-06-19T02:19:51;6.07;;;4.00;;
46391;SDS011;32098;49.448;7.904;2023-06-19T02:22:18;4.68;;;4.28;;
46391;SDS011;32098;49.448;7.904;2023-06-19T02:24:45;4.40;;;4.00;;
46391;SDS011;32098;49.448;7.904;2023-06-19T02:27:12;4.60;;;4.10;;
46391;SDS011;32098;49.448;7.904;2023-06-19T02:29:38;4.30;;;3.72;;
46391;SDS011;32098;49.448;7.904;2023-06-19T02:32:05;4.40;;;3.67;;
46391;SDS011;32098;49.448;7.904;2023-06-19T02:34:32;3.67;;;3.38;;
46391;SDS011;32098;49.448;7.904;2023-06-19T02:36:59;3.85;;;3.28;;
46391;SDS011;32098;49.448;7.904;2023-06-19T02:39:26;3.97;;;3.60;;
46391;SDS011;32098;49.448;7.904;2023-06-19T02:41:53;3.88;;;3.58;;
46391;SDS011;32098;49.448;7.904;2023-06-19T02:44:19;3.58;;;3.28;;
46391;SDS011;32098;49.448;7.904;2023-06-19T02:46:46;4.93;;;3.72;;
46391;SDS011;32098;49.448;7.904;2023-06-19T02:49:14;4.30;;;3.35;;
46391;SDS011;32098;49.448;7.904;2023-06-19T02:51:41;3.53;;;3.22;;
46391;SDS011;32098;49.448;7.904;2023-06-19T02:54:08;3.42;;;3.13;;
46391;SDS011;32098;49.448;7.904;2023-06-19T02:56:35;3.25;;;2.95;;
46391;SDS011;32098;49.448;7.904;2023-06-19T02:59:01;3.22;;;2.78;;
46391;SDS011;32098;49.448;7.904;2023-06-19T03:01:28;3.42;;;3.13;;
46391;SDS011;32098;49.448;7.904;2023-06-19T03:03:55;3.20;;;2.90;;
46391;SDS011;32098;49.448;7.904;2023-06-19T03:06:21;2.72;;;2.47;;
46391;SDS011;32098;49.448;7.904;2023-06-19T03:08:48;3.05;;;2.53;;
46391;SDS011;32098;49.448;7.904;2023-06-19T03:11:15;3.15;;;2.42;;
46391;SDS011;32098;49.448;7.904;2023-06-19T03:13:49;2.30;;;2.10;;
46391;SDS011;32098;49.448;7.904;2023-06-19T03:16:18;2.85;;;2.55;;
46391;SDS011;32098;49.448;7.904;2023-06-19T03:18:47;3.67;;;2.47;;
46391;SDS011;32098;49.448;7.904;2023-06-19T03:21:20;3.08;;;2.72;;
46391;SDS011;32098;49.448;7.904;2023-06-19T03:23:49;3.67;;;2.55;;
46391;SDS011;32098;49.448;7.904;2023-06-19T03:26:18;2.33;;;2.13;;
46391;SDS011;32098;49.448;7.904;2023-06-19T03:28:46;2.85;;;2.40;;
46391;SDS011;32098;49.448;7.904;2023-06-19T03:31:14;3.40;;;2.42;;
46391;SDS011;32098;49.448;7.904;2023-06-19T03:33:41;3.50;;;2.40;;
46391;SDS011;32098;49.448;7.904;2023-06-19T03:36:09;3.03;;;2.67;;
46391;SDS011;32098;49.448;7.904;2023-06-19T03:38:48;3.28;;;2.63;;
46391;SDS011;32098;49.448;7.904;2023-06-19T03:41:18;2.92;;;2.50;;
46391;SDS011;32098;49.448;7.904;2023-06-19T03:43:46;3.25;;;2.53;;
46391;SDS011;32098;49.448;7.904;2023-06-19T03:46:13;2.60;;;2.40;;
46391;SDS011;32098;49.448;7.904;2023-06-19T03:48:39;3.00;;;2.70;;
46391;SDS011;32098;49.448;7.904;2023-06-19T03:51:06;2.95;;;2.65;;
46391;SDS011;32098;49.448;7.904;2023-06-19T03:53:32;3.13;;;2.80;;
46391;SDS011;32098;49.448;7.904;2023-06-19T03:55:59;3.03;;;2.72;;
46391;SDS011;32098;49.448;7.904;2023-06-19T03:58:25;3.10;;;2.75;;
46391;SDS011;32098;49.448;7.904;2023-06-19T04:00:52;3.15;;;2.88;;
46391;SDS011;32098;49.448;7.904;2023-06-19T04:03:19;3.38;;;3.08;;
46391;SDS011;32098;49.448;7.904;2023-06-19T04:05:45;3.50;;;3.20;;
46391;SDS011;32098;49.448;7.904;2023-06-19T04:08:12;3.45;;;3.15;;
46391;SDS011;32098;49.448;7.904;2023-06-19T04:10:42;3.30;;;3.00;;
46391;SDS011;32098;49.448;7.904;2023-06-19T04:13:08;3.67;;;2.90;;
46391;SDS011;32098;49.448;7.904;2023-06-19T04:15:36;3.40;;;3.00;;
46391;SDS011;32098;49.448;7.904;2023-06-19T04:18:03;3.42;;;3.13;;
46391;SDS011;32098;49.448;7.904;2023-06-19T04:20:30;3.72;;;3.42;;
46391;SDS011;32098;49.448;7.904;2023-06-19T04:22:57;4.07;;;3.17;;
46391;SDS011;32098;49.448;7.904;2023-06-19T04:25:23;3.50;;;3.20;;
46391;SDS011;32098;49.448;7.904;2023-06-19T04:27:50;3.58;;;3.25;;
46391;SDS011;32098;49.448;7.904;2023-06-19T04:30:17;3.50;;;3.20;;
46391;SDS011;32098;49.448;7.904;2023-06-19T04:32:43;3.72;;;3.42;;
46391;SDS011;32098;49.448;7.904;2023-06-19T04:35:10;4.22;;;3.33;;
46391;SDS011;32098;49.448;7.904;2023-06-19T04:37:37;3.50;;;3.20;;
46391;SDS011;32098;49.448;7.904;2023-06-19T04:40:03;4.20;;;3.80;;
46391;SDS011;32098;49.448;7.904;2023-06-19T04:42:31;3.40;;;3.10;;
46391;SDS011;32098;49.448;7.904;2023-06-19T04:44:57;3.70;;;3.38;;
46391;SDS011;32098;49.448;7.904;2023-06-19T04:47:26;4.13;;;3.60;;
46391;SDS011;32098;49.448;7.904;2023-06-19T04:50:09;3.97;;;3.67;;
46391;SDS011;32098;49.448;7.904;2023-06-19T04:52:35;3.65;;;3.30;;
46391;SDS011;32098;49.448;7.904;2023-06-19T04:55:07;5.40;;;3.28;;
46391;SDS011;32098;49.448;7.904;2023-06-19T04:57:36;4.47;;;3.63;;
46391;SDS011;32098;49.448;7.904;2023-06-19T05:00:06;3.63;;;3.33;;
46391;SDS011;32098;49.448;7.904;2023-06-19T05:02:33;4.22;;;3.67;;
46391;SDS011;32098;49.448;7.904;2023-06-19T05:05:00;4.47;;;3.60;;
46391;SDS011;32098;49.448;7.904;2023-06-19T05:07:29;4.70;;;3.50;;
46391;SDS011;32098;49.448;7.904;2023-06-19T05:09:57;4.13;;;3.72;;
46391;SDS011;32098;49.448;7.904;2023-06-19T05:12:25;4.03;;;3.63;;
46391;SDS011;32098;49.448;7.904;2023-06-19T05:14:51;3.80;;;3.50;;
46391;SDS011;32098;49.448;7.904;2023-06-19T05:17:18;5.15;;;3.67;;
46391;SDS011;32098;49.448;7.904;2023-06-19T05:19:45;4.22;;;3.83;;
46391;SDS011;32098;49.448;7.904;2023-06-19T05:22:11;4.47;;;3.72;;
46391;SDS011;32098;49.448;7.904;2023-06-19T05:24:38;4.50;;;3.83;;
46391;SDS011;32098;49.448;7.904;2023-06-19T05:27:05;4.40;;;3.63;;
46391;SDS011;32098;49.448;7.904;2023-06-19T05:29:32;4.50;;;4.10;;
46391;SDS011;32098;49.448;7.904;2023-06-19T05:31:58;4.88;;;4.07;;
46391;SDS011;32098;49.448;7.904;2023-06-19T05:34:25;4.38;;;3.92;;
46391;SDS011;32098;49.448;7.904;2023-06-19T05:36:52;5.95;;;4.43;;
46391;SDS011;32098;49.448;7.904;2023-06-19T05:39:18;4.60;;;4.05;;
46391;SDS011;32098;49.448;7.904;2023-06-19T05:41:45;5.05;;;4.07;;
46391;SDS011;32098;49.448;7.904;2023-06-19T05:44:12;4.60;;;4.20;;
46391;SDS011;32098;49.448;7.904;2023-06-19T05:46:42;4.70;;;4.22;;
46391;SDS011;32098;49.448;7.904;2023-06-19T05:49:09;5.75;;;4.70;;
46391;SDS011;32098;49.448;7.904;2023-06-19T05:51:35;9.18;;;5.22;;
46391;SDS011;32098;49.448;7.904;2023-06-19T05:54:02;5.32;;;4.50;;
46391;SDS011;32098;49.448;7.904;2023-06-19T05:56:30;5.53;;;4.40;;
46391;SDS011;32098;49.448;7.904;2023-06-19T05:58:59;5.97;;;4.53;;
46391;SDS011;32098;49.448;7.904;2023-06-19T06:01:27;6.78;;;4.70;;
46391;SDS011;32098;49.448;7.904;2023-06-19T06:03:54;6.05;;;4.28;;
46391;SDS011;32098;49.448;7.904;2023-06-19T06:06:24;5.28;;;4.30;;
46391;SDS011;32098;49.448;7.904;2023-06-19T06:08:51;5.85;;;4.78;;
46391;SDS011;32098;49.448;7.904;2023-06-19T06:11:18;4.68;;;4.25;;
46391;SDS011;32098;49.448;7.904;2023-06-19T06:13:45;5.72;;;4.50;;
46391;SDS011;32098;49.448;7.904;2023-06-19T06:16:11;4.75;;;4.35;;
46391;SDS011;32098;49.448;7.904;2023-06-19T06:18:38;5.40;;;4.90;;
46391;SDS011;32098;49.448;7.904;2023-06-19T06:21:04;6.60;;;4.65;;
46391;SDS011;32098;49.448;7.904;2023-06-19T06:23:31;4.78;;;4.22;;
46391;SDS011;32098;49.448;7.904;2023-06-19T06:25:57;5.47;;;4.70;;
46391;SDS011;32098;49.448;7.904;2023-06-19T06:28:28;5.85;;;4.25;;
46391;SDS011;32098;49.448;7.904;2023-06-19T06:30:55;4.88;;;4.32;;
46391;SDS011;32098;49.448;7.904;2023-06-19T06:33:22;5.32;;;4.20;;
46391;SDS011;32098;49.448;7.904;2023-06-19T06:35:49;4.72;;;4.20;;
46391;SDS011;32098;49.448;7.904;2023-06-19T06:38:16;5.20;;;4.40;;
46391;SDS011;32098;49.448;7.904;2023-06-19T06:40:42;6.25;;;4.30;;
46391;SDS011;32098;49.448;7.904;2023-06-19T06:43:09;4.68;;;4.28;;
46391;SDS011;32098;49.448;7.904;2023-06-19T06:45:36;4.50;;;4.10;;
46391;SDS011;32098;49.448;7.904;2023-06-19T06:48:04;4.70;;;4.18;;
46391;SDS011;32098;49.448;7.904;2023-06-19T06:50:33;4.88;;;4.38;;
46391;SDS011;32098;49.448;7.904;2023-06-19T06:53:00;4.22;;;3.88;;
46391;SDS011;32098;49.448;7.904;2023-06-19T06:55:27;4.40;;;4.00;;
46391;SDS011;32098;49.448;7.904;2023-06-19T06:57:53;5.90;;;4.30;;
46391;SDS011;32098;49.448;7.904;2023-06-19T07:00:20;4.22;;;3.80;;
46391;SDS011;32098;49.448;7.904;2023-06-19T07:02:47;5.93;;;4.40;;
46391;SDS011;32098;49.448;7.904;2023-06-19T07:05:16;4.97;;;4.15;;
46391;SDS011;32098;49.448;7.904;2023-06-19T07:07:43;4.88;;;4.40;;
46391;SDS011;32098;49.448;7.904;2023-06-19T07:10:09;5.10;;;4.60;;
46391;SDS011;32098;49.448;7.904;2023-06-19T07:12:43;4.80;;;4.38;;
46391;SDS011;32098;49.448;7.904;2023-06-19T07:15:11;6.97;;;4.63;;
46391;SDS011;32098;49.448;7.904;2023-06-19T07:17:38;6.78;;;4.25;;
46391;SDS011;32098;49.448;7.904;2023-06-19T07:20:04;4.68;;;4.20;;
46391;SDS011;32098;49.448;7.904;2023-06-19T07:22:32;4.40;;;4.00;;
46391;SDS011;32098;49.448;7.904;2023-06-19T07:24:59;4.78;;;4.22;;
46391;SDS011;32098;49.448;7.904;2023-06-19T07:27:26;4.93;;;4.07;;
46391;SDS011;32098;49.448;7.904;2023-06-19T07:29:53;5.00;;;4.60;;
46391;SDS011;32098;49.448;7.904;2023-06-19T07:32:20;6.45;;;4.00;;
46391;SDS011;32098;49.448;7.904;2023-06-19T07:34:47;6.30;;;4.25;;
46391;SDS011;32098;49.448;7.904;2023-06-19T07:37:13;5.22;;;4.53;;
46391;SDS011;32098;49.448;7.904;2023-06-19T07:39:47;6.05;;;4.28;;
46391;SDS011;32098;49.448;7.904;2023-06-19T07:42:16;4.28;;;3.97;;
46391;SDS011;32098;49.448;7.904;2023-06-19T07:44:44;5.10;;;4.13;;
46391;SDS011;32098;49.448;7.904;2023-06-19T07:47:12;4.75;;;4.20;;
46391;SDS011;32098;49.448;7.904;2023-06-19T07:49:39;4.55;;;4.13;;
46391;SDS011;32098;49.448;7.904;2023-06-19T07:52:06;4.53;;;3.97;;
46391;SDS011;32098;49.448;7.904;2023-06-19T07:54:35;5.45;;;4.18;;
46391;SDS011;32098;49.448;7.904;2023-06-19T07:57:02;4.35;;;3.92;;
46391;SDS011;32098;49.448;7.904;2023-06-19T07:59:28;4.28;;;3.85;;
46391;SDS011;32098;49.448;7.904;2023-06-19T08:01:55;4.32;;;3.92;;
46391;SDS011;32098;49.448;7.904;2023-06-19T08:04:21;4.47;;;3.97;;
46391;SDS011;32098;49.448;7.904;2023-06-19T08:06:48;5.22;;;4.53;;
46391;SDS011;32098;49.448;7.904;2023-06-19T08:09:15;6.28;;;4.07;;
46391;SDS011;32098;49.448;7.904;2023-06-19T08:11:42;4.47;;;4.00;;
46391;SDS011;32098;49.448;7.904;2023-06-19T08:14:08;5.80;;;3.90;;
46391;SDS011;32098;49.448;7.904;2023-06-19T08:16:35;4.47;;;4.05;;
46391;SDS011;32098;49.448;7.904;2023-06-19T08:19:02;6.53;;;4.20;;
46391;SDS011;32098;49.448;7.904;2023-06-19T08:21:28;4.35;;;3.95;;
46391;SDS011;32098;49.448;7.904;2023-06-19T08:23:55;4.32;;;3.88;;
46391;SDS011;32098;49.448;7.904;2023-06-19T08:26:21;4.60;;;3.60;;
46391;SDS011;32098;49.448;7.904;2023-06-19T08:28:48;5.43;;;3.95;;
46391;SDS011;32098;49.448;7.904;2023-06-19T08:31:15;3.97;;;3.60;;
46391;SDS011;32098;49.448;7.904;2023-06-19T08:33:43;4.07;;;3.45;;
46391;SDS011;32098;49.448;7.904;2023-06-19T08:36:09;4.68;;;3.55;;
46391;SDS011;32098;49.448;7.904;2023-06-19T08:38:36;4.93;;;3.63;;
46391;SDS011;32098;49.448;7.904;2023-06-19T08:41:02;4.20;;;3.42;;
46391;SDS011;32098;49.448;7.904;2023-06-19T08:43:29;3.67;;;3.20;;
46391;SDS011;32098;49.448;7.904;2023-06-19T08:46:00;4.05;;;3.65;;
46391;SDS011;32098;49.448;7.904;2023-06-19T08:48:34;3.60;;;3.13;;
46391;SDS011;32098;49.448;7.904;2023-06-19T08:51:04;3.53;;;3.20;;
46391;SDS011;32098;49.448;7.904;2023-06-19T08:53:35;3.40;;;3.10;;
46391;SDS011;32098;49.448;7.904;2023-06-19T08:56:05;5.07;;;3.47;;
46391;SDS011;32098;49.448;7.904;2023-06-19T08:58:32;3.95;;;3.50;;
46391;SDS011;32098;49.448;7.904;2023-06-19T09:00:58;3.53;;;3.22;;
46391;SDS011;32098;49.448;7.904;2023-06-19T09:03:25;4.97;;;3.00;;
46391;SDS011;32098;49.448;7.904;2023-06-19T09:05:52;3.58;;;3.28;;
46391;SDS011;32098;49.448;7.904;2023-06-19T09:08:20;3.78;;;3.35;;
46391;SDS011;32098;49.448;7.904;2023-06-19T09:13:28;4.25;;;2.97;;
46391;SDS011;32098;49.448;7.904;2023-06-19T09:16:06;3.72;;;3.40;;
46391;SDS011;32098;49.448;7.904;2023-06-19T09:18:43;4.35;;;3.17;;
46391;SDS011;32098;49.448;7.904;2023-06-19T09:21:17;5.57;;;2.83;;
46391;SDS011;32098;49.448;7.904;2023-06-19T09:23:45;4.93;;;3.15;;
46391;SDS011;32098;49.448;7.904;2023-06-19T09:26:16;3.90;;;3.10;;
46391;SDS011;32098;49.448;7.904;2023-06-19T09:28:44;3.45;;;3.15;;
46391;SDS011;32098;49.448;7.904;2023-06-19T09:31:11;3.55;;;3.20;;
46391;SDS011;32098;49.448;7.904;2023-06-19T09:33:39;4.95;;;3.22;;
46391;SDS011;32098;49.448;7.904;2023-06-19T09:36:06;4.03;;;3.00;;
46391;SDS011;32098;49.448;7.904;2023-06-19T09:38:35;3.00;;;2.70;;
46391;SDS011;32098;49.448;7.904;2023-06-19T09:41:12;3.33;;;2.90;;
46391;SDS011;32098;49.448;7.904;2023-06-19T09:43:40;2.72;;;2.40;;
46391;SDS011;32098;49.448;7.904;2023-06-19T09:46:10;2.90;;;2.60;;
46391;SDS011;32098;49.448;7.904;2023-06-19T09:48:44;2.72;;;2.50;;
46391;SDS011;32098;49.448;7.904;2023-06-19T09:51:23;2.70;;;2.50;;
46391;SDS011;32098;49.448;7.904;2023-06-19T09:53:57;3.40;;;2.53;;
46391;SDS011;32098;49.448;7.904;2023-06-19T09:56:29;2.90;;;2.70;;
46391;SDS011;32098;49.448;7.904;2023-06-19T09:58:56;3.03;;;2.72;;
46391;SDS011;32098;49.448;7.904;2023-06-19T10:01:27;4.88;;;3.25;;
46391;SDS011;32098;49.448;7.904;2023-06-19T10:04:03;2.80;;;2.60;;
46391;SDS011;32098;49.448;7.904;2023-06-19T10:06:30;3.35;;;2.42;;
46391;SDS011;32098;49.448;7.904;2023-06-19T10:09:05;2.60;;;2.40;;
46391;SDS011;32098;49.448;7.904;2023-06-19T10:11:49;2.75;;;2.55;;
46391;SDS011;32098;49.448;7.904;2023-06-19T10:14:18;2.65;;;2.45;;
46391;SDS011;32098;49.448;7.904;2023-06-19T10:16:46;2.60;;;2.40;;
46391;SDS011;32098;49.448;7.904;2023-06-19T10:19:13;2.58;;;2.38;;
46391;SDS011;32098;49.448;7.904;2023-06-19T10:21:45;2.97;;;2.30;;
46391;SDS011;32098;49.448;7.904;2023-06-19T10:24:20;3.10;;;2.33;;
46391;SDS011;32098;49.448;7.904;2023-06-19T10:27:00;3.58;;;2.38;;
46391;SDS011;32098;49.448;7.904;2023-06-19T10:29:40;2.92;;;1.88;;
46391;SDS011;32098;49.448;7.904;2023-06-19T10:32:15;2.05;;;1.92;;
46391;SDS011;32098;49.448;7.904;2023-06-19T10:34:45;3.97;;;2.20;;
46391;SDS011;32098;49.448;7.904;2023-06-19T10:37:15;2.13;;;1.95;;
46391;SDS011;32098;49.448;7.904;2023-06-19T10:39:42;2.38;;;2.22;;
46391;SDS011;32098;49.448;7.904;2023-06-19T10:42:10;4.63;;;2.55;;
46391;SDS011;32098;49.448;7.904;2023-06-19T10:44:36;3.28;;;2.10;;
46391;SDS011;32098;49.448;7.904;2023-06-19T10:47:04;3.22;;;2.00;;
46391;SDS011;32098;49.448;7.904;2023-06-19T10:49:33;2.72;;;2.40;;
46391;SDS011;32098;49.448;7.904;2023-06-19T10:52:00;3.92;;;2.70;;
46391;SDS011;32098;49.448;7.904;2023-06-19T10:54:28;2.72;;;2.47;;
46391;SDS011;32098;49.448;7.904;2023-06-19T10:56:55;2.45;;;2.25;;
46391;SDS011;32098;49.448;7.904;2023-06-19T10:59:23;2.22;;;2.03;;
46391;SDS011;32098;49.448;7.904;2023-06-19T11:01:51;2.22;;;2.13;;
46391;SDS011;32098;49.448;7.904;2023-06-19T11:04:18;2.65;;;2.42;;
46391;SDS011;32098;49.448;7.904;2023-06-19T11:06:45;2.92;;;2.72;;
46391;SDS011;32098;49.448;7.904;2023-06-19T11:09:13;2.67;;;2.47;;
46391;SDS011;32098;49.448;7.904;2023-06-19T11:11:43;3.25;;;2.85;;
46391;SDS011;32098;49.448;7.904;2023-06-19T11:14:12;2.72;;;2.40;;
46391;SDS011;32098;49.448;7.904;2023-06-19T11:16:41;2.63;;;2.40;;
46391;SDS011;32098;49.448;7.904;2023-06-19T11:19:15;3.28;;;2.72;;
46391;SDS011;32098;49.448;7.904;2023-06-19T11:21:45;4.13;;;2.60;;
46391;SDS011;32098;49.448;7.904;2023-06-19T11:24:13;3.05;;;2.50;;
46391;SDS011;32098;49.448;7.904;2023-06-19T11:26:41;2.65;;;2.45;;
46391;SDS011;32098;49.448;7.904;2023-06-19T11:29:16;2.70;;;2.50;;
46391;SDS011;32098;49.448;7.904;2023-06-19T11:31:45;4.78;;;3.30;;
46391;SDS011;32098;49.448;7.904;2023-06-19T11:34:12;3.22;;;2.92;;
46391;SDS011;32098;49.448;7.904;2023-06-19T11:36:40;3.00;;;2.80;;
46391;SDS011;32098;49.448;7.904;2023-06-19T11:39:11;3.47;;;3.17;;
46391;SDS011;32098;49.448;7.904;2023-06-19T11:41:43;3.25;;;3.05;;
46391;SDS011;32098;49.448;7.904;2023-06-19T11:44:10;3.40;;;3.20;;
46391;SDS011;32098;49.448;7.904;2023-06-19T11:46:37;3.95;;;3.40;;
46391;SDS011;32098;49.448;7.904;2023-06-19T11:51:46;3.80;;;3.45;;
46391;SDS011;32098;49.448;7.904;2023-06-19T11:54:14;4.35;;;3.55;;
46391;SDS011;32098;49.448;7.904;2023-06-19T11:56:41;3.97;;;3.30;;
46391;SDS011;32098;49.448;7.904;2023-06-19T11:59:08;3.60;;;3.30;;
46391;SDS011;32098;49.448;7.904;2023-06-19T12:01:35;3.45;;;3.15;;
46391;SDS011;32098;49.448;7.904;2023-06-19T12:04:03;3.90;;;3.60;;
46391;SDS011;32098;49.448;7.904;2023-06-19T12:06:31;4.97;;;3.67;;
46391;SDS011;32098;49.448;7.904;2023-06-19T12:08:58;4.18;;;3.83;;
46391;SDS011;32098;49.448;7.904;2023-06-19T12:11:25;3.70;;;3.40;;
46391;SDS011;32098;49.448;7.904;2023-06-19T12:13:51;4.00;;;3.70;;
46391;SDS011;32098;49.448;7.904;2023-06-19T12:16:19;4.22;;;3.58;;
46391;SDS011;32098;49.448;7.904;2023-06-19T12:18:46;3.60;;;3.30;;
46391;SDS011;32098;49.448;7.904;2023-06-19T12:21:13;5.25;;;3.65;;
46391;SDS011;32098;49.448;7.904;2023-06-19T12:23:59;3.70;;;3.40;;
46391;SDS011;32098;49.448;7.904;2023-06-19T12:26:26;4.45;;;3.30;;
46391;SDS011;32098;49.448;7.904;2023-06-19T12:28:52;4.25;;;3.85;;
46391;SDS011;32098;49.448;7.904;2023-06-19T12:31:19;4.10;;;3.40;;
46391;SDS011;32098;49.448;7.904;2023-06-19T12:33:46;3.65;;;3.35;;
46391;SDS011;32098;49.448;7.904;2023-06-19T12:36:14;3.58;;;3.30;;
46391;SDS011;32098;49.448;7.904;2023-06-19T12:38:41;3.72;;;3.45;;
46391;SDS011;32098;49.448;7.904;2023-06-19T12:41:07;3.80;;;3.50;;
46391;SDS011;32098;49.448;7.904;2023-06-19T12:43:34;3.85;;;3.55;;
46391;SDS011;32098;49.448;7.904;2023-06-19T12:46:00;4.82;;;3.80;;
46391;SDS011;32098;49.448;7.904;2023-06-19T12:48:27;3.80;;;3.50;;
46391;SDS011;32098;49.448;7.904;2023-06-19T12:50:54;3.65;;;3.35;;
46391;SDS011;32098;49.448;7.904;2023-06-19T12:53:21;4.32;;;3.53;;
46391;SDS011;32098;49.448;7.904;2023-06-19T12:55:52;4.15;;;3.65;;
46391;SDS011;32098;49.448;7.904;2023-06-19T12:58:28;3.58;;;3.28;;
46391;SDS011;32098;49.448;7.904;2023-06-19T13:00:55;3.95;;;3.53;;
46391;SDS011;32098;49.448;7.904;2023-06-19T13:03:21;3.97;;;3.63;;
46391;SDS011;32098;49.448;7.904;2023-06-19T13:05:48;3.78;;;3.42;;
46391;SDS011;32098;49.448;7.904;2023-06-19T13:08:15;4.32;;;3.88;;
46391;SDS011;32098;49.448;7.904;2023-06-19T13:10:42;4.20;;;3.80;;
46391;SDS011;32098;49.448;7.904;2023-06-19T13:13:08;3.80;;;3.50;;
46391;SDS011;32098;49.448;7.904;2023-06-19T13:15:36;4.88;;;3.80;;
46391;SDS011;32098;49.448;7.904;2023-06-19T13:18:03;3.97;;;3.58;;
46391;SDS011;32098;49.448;7.904;2023-06-19T13:20:30;4.03;;;3.60;;
46391;SDS011;32098;49.448;7.904;2023-06-19T13:22:56;3.95;;;3.55;;
46391;SDS011;32098;49.448;7.904;2023-06-19T13:25:23;4.07;;;3.70;;
46391;SDS011;32098;49.448;7.904;2023-06-19T13:27:49;3.65;;;3.35;;
46391;SDS011;32098;49.448;7.904;2023-06-19T13:30:16;3.80;;;3.38;;
46391;SDS011;32098;49.448;7.904;2023-06-19T13:32:42;3.95;;;3.55;;
46391;SDS011;32098;49.448;7.904;2023-06-19T13:35:09;4.03;;;3.70;;
46391;SDS011;32098;49.448;7.904;2023-06-19T13:37:36;4.13;;;3.72;;
46391;SDS011;32098;49.448;7.904;2023-06-19T13:40:06;4.00;;;3.70;;
46391;SDS011;32098;49.448;7.904;2023-06-19T13:42:34;3.63;;;3.33;;
46391;SDS011;32098;49.448;7.904;2023-06-19T13:45:05;5.10;;;3.90;;
46391;SDS011;32098;49.448;7.904;2023-06-19T13:47:32;4.07;;;3.72;;
46391;SDS011;32098;49.448;7.904;2023-06-19T13:49:58;3.88;;;3.45;;
46391;SDS011;32098;49.448;7.904;2023-06-19T13:52:25;4.10;;;3.75;;
46391;SDS011;32098;49.448;7.904;2023-06-19T13:54:52;3.95;;;3.55;;
46391;SDS011;32098;49.448;7.904;2023-06-19T13:57:21;4.30;;;3.90;;
46391;SDS011;32098;49.448;7.904;2023-06-19T13:59:48;4.25;;;3.72;;
46391;SDS011;32098;49.448;7.904;2023-06-19T14:02:15;3.65;;;3.35;;
46391;SDS011;32098;49.448;7.904;2023-06-19T14:04:42;4.13;;;3.70;;
46391;SDS011;32098;49.448;7.904;2023-06-19T14:07:08;4.32;;;3.90;;
46391;SDS011;32098;49.448;7.904;2023-06-19T14:09:35;3.80;;;3.50;;
46391;SDS011;32098;49.448;7.904;2023-06-19T14:12:02;3.75;;;3.45;;
46391;SDS011;32098;49.448;7.904;2023-06-19T14:14:29;3.60;;;3.30;;
46391;SDS011;32098;49.448;7.904;2023-06-19T14:16:55;3.65;;;3.35;;
46391;SDS011;32098;49.448;7.904;2023-06-19T14:19:24;3.90;;;3.50;;
46391;SDS011;32098;49.448;7.904;2023-06-19T14:21:51;3.78;;;3.40;;
46391;SDS011;32098;49.448;7.904;2023-06-19T14:24:17;4.68;;;3.40;;
46391;SDS011;32098;49.448;7.904;2023-06-19T14:26:44;3.83;;;3.40;;
46391;SDS011;32098;49.448;7.904;2023-06-19T14:29:10;3.80;;;3.50;;
46391;SDS011;32098;49.448;7.904;2023-06-19T14:31:39;3.92;;;3.63;;
46391;SDS011;32098;49.448;7.904;2023-06-19T14:34:06;3.72;;;3.42;;
46391;SDS011;32098;49.448;7.904;2023-06-19T14:36:32;4.13;;;3.67;;
46391;SDS011;32098;49.448;7.904;2023-06-19T14:38:59;3.97;;;3.67;;
46391;SDS011;32098;49.448;7.904;2023-06-19T14:41:25;3.90;;;3.60;;
46391;SDS011;32098;49.448;7.904;2023-06-19T14:43:52;4.30;;;3.90;;
46391;SDS011;32098;49.448;7.904;2023-06-19T14:46:18;4.03;;;3.63;;
46391;SDS011;32098;49.448;7.904;2023-06-19T14:49:04;3.80;;;3.50;;
46391;SDS011;32098;49.448;7.904;2023-06-19T14:51:33;4.15;;;3.85;;
46391;SDS011;32098;49.448;7.904;2023-06-19T14:54:00;4.10;;;3.70;;
46391;SDS011;32098;49.448;7.904;2023-06-19T14:56:26;3.40;;;3.20;;
46391;SDS011;32098;49.448;7.904;2023-06-19T14:58:53;3.85;;;3.53;;